sensor_id;sensor_type;location;lat;lon;timestamp;P1;durP1;ratioP1;P2;durP2;ratioP2
15228;SDS011;7717;47.792;12.076;2024-01-10T00:01:33;35.67;;;18.43;;
15228;SDS011;7717;47.792;12.076;2024-01-10T00:03:59;38.47;;;18.77;;
15228;SDS011;7717;47.792;12.076;2024-01-10T00:06:24;30.33;;;17.77;;
15228;SDS011;7717;47.792;12.076;2024-01-10T00:08:50;31.47;;;16.43;;
15228;SDS011;7717;47.792;12.076;2024-01-10T00:11:15;35.43;;;18.03;;
15228;SDS011;7717;47.792;12.076;2024-01-10T00:13:41;31.20;;;18.07;;
15228;SDS011;7717;47.792;12.076;2024-01-10T00:16:06;34.70;;;18.23;;
15228;SDS011;7717;47.792;12.076;2024-01-10T00:18:31;32.60;;;17.60;;
15228;SDS011;7717;47.792;12.076;2024-01-10T00:20:57;32.10;;;17.70;;
15228;SDS011;7717;47.792;12.076;2024-01-10T00:23:23;32.93;;;17.87;;
15228;SDS011;7717;47.792;12.076;2024-01-10T00:25:48;30.07;;;17.30;;
15228;SDS011;7717;47.792;12.076;2024-01-10T00:28:14;33.20;;;18.87;;
15228;SDS011;7717;47.792;12.076;2024-01-10T00:30:43;36.37;;;18.00;;
15228;SDS011;7717;47.792;12.076;2024-01-10T00:33:09;33.93;;;18.13;;
15228;SDS011;7717;47.792;12.076;2024-01-10T00:35:36;32.73;;;18.03;;
15228;SDS011;7717;47.792;12.076;2024-01-10T00:38:01;36.07;;;18.87;;
15228;SDS011;7717;47.792;12.076;2024-01-10T00:40:27;33.83;;;18.07;;
15228;SDS011;7717;47.792;12.076;2024-01-10T00:42:52;36.77;;;17.63;;
15228;SDS011;7717;47.792;12.076;2024-01-10T00:45:17;38.33;;;18.60;;
15228;SDS011;7717;47.792;12.076;2024-01-10T00:47:43;33.07;;;18.00;;
15228;SDS011;7717;47.792;12.076;2024-01-10T00:50:08;31.60;;;16.70;;
15228;SDS011;7717;47.792;12.076;2024-01-10T00:52:34;36.13;;;19.37;;
15228;SDS011;7717;47.792;12.076;2024-01-10T00:55:00;34.23;;;15.80;;
15228;SDS011;7717;47.792;12.076;2024-01-10T00:57:25;33.90;;;18.00;;
15228;SDS011;7717;47.792;12.076;2024-01-10T00:59:51;33.17;;;17.73;;
15228;SDS011;7717;47.792;12.076;2024-01-10T01:02:16;34.93;;;16.87;;
15228;SDS011;7717;47.792;12.076;2024-01-10T01:04:42;30.90;;;17.30;;
15228;SDS011;7717;47.792;12.076;2024-01-10T01:07:07;35.33;;;17.97;;
15228;SDS011;7717;47.792;12.076;2024-01-10T01:09:33;36.07;;;18.40;;
15228;SDS011;7717;47.792;12.076;2024-01-10T01:11:58;33.07;;;17.73;;
15228;SDS011;7717;47.792;12.076;2024-01-10T01:14:24;35.43;;;17.70;;
15228;SDS011;7717;47.792;12.076;2024-01-10T01:16:52;36.50;;;18.90;;
15228;SDS011;7717;47.792;12.076;2024-01-10T01:19:17;35.87;;;18.13;;
15228;SDS011;7717;47.792;12.076;2024-01-10T01:21:43;35.03;;;17.37;;
15228;SDS011;7717;47.792;12.076;2024-01-10T01:24:08;31.23;;;17.17;;
15228;SDS011;7717;47.792;12.076;2024-01-10T01:26:34;36.10;;;18.43;;
15228;SDS011;7717;47.792;12.076;2024-01-10T01:28:59;36.83;;;18.43;;
15228;SDS011;7717;47.792;12.076;2024-01-10T01:31:25;32.83;;;18.70;;
15228;SDS011;7717;47.792;12.076;2024-01-10T01:33:51;38.20;;;18.80;;
15228;SDS011;7717;47.792;12.076;2024-01-10T01:36:16;33.63;;;18.10;;
15228;SDS011;7717;47.792;12.076;2024-01-10T01:38:42;33.63;;;17.90;;
15228;SDS011;7717;47.792;12.076;2024-01-10T01:41:10;32.30;;;18.13;;
15228;SDS011;7717;47.792;12.076;2024-01-10T01:43:36;30.67;;;17.30;;
15228;SDS011;7717;47.792;12.076;2024-01-10T01:46:01;34.23;;;19.10;;
15228;SDS011;7717;47.792;12.076;2024-01-10T01:48:28;38.50;;;17.90;;
15228;SDS011;7717;47.792;12.076;2024-01-10T01:50:56;35.03;;;19.37;;
15228;SDS011;7717;47.792;12.076;2024-01-10T01:53:26;30.63;;;16.60;;
15228;SDS011;7717;47.792;12.076;2024-01-10T01:55:54;32.90;;;18.70;;
15228;SDS011;7717;47.792;12.076;2024-01-10T01:58:22;36.20;;;18.17;;
15228;SDS011;7717;47.792;12.076;2024-01-10T02:00:48;48.63;;;20.63;;
15228;SDS011;7717;47.792;12.076;2024-01-10T02:03:15;36.40;;;20.93;;
15228;SDS011;7717;47.792;12.076;2024-01-10T02:05:40;34.97;;;19.13;;
15228;SDS011;7717;47.792;12.076;2024-01-10T02:08:06;36.87;;;19.10;;
15228;SDS011;7717;47.792;12.076;2024-01-10T02:10:31;35.67;;;20.17;;
15228;SDS011;7717;47.792;12.076;2024-01-10T02:12:57;31.33;;;16.83;;
15228;SDS011;7717;47.792;12.076;2024-01-10T02:15:23;34.63;;;17.83;;
15228;SDS011;7717;47.792;12.076;2024-01-10T02:17:49;32.50;;;17.70;;
15228;SDS011;7717;47.792;12.076;2024-01-10T02:20:15;31.50;;;19.00;;
15228;SDS011;7717;47.792;12.076;2024-01-10T02:22:46;35.30;;;18.83;;
15228;SDS011;7717;47.792;12.076;2024-01-10T02:25:12;38.23;;;19.23;;
15228;SDS011;7717;47.792;12.076;2024-01-10T02:27:38;36.40;;;18.17;;
15228;SDS011;7717;47.792;12.076;2024-01-10T02:30:05;29.73;;;17.40;;
15228;SDS011;7717;47.792;12.076;2024-01-10T02:32:32;31.67;;;17.97;;
15228;SDS011;7717;47.792;12.076;2024-01-10T02:34:58;35.70;;;19.10;;
15228;SDS011;7717;47.792;12.076;2024-01-10T02:37:23;35.77;;;18.40;;
15228;SDS011;7717;47.792;12.076;2024-01-10T02:39:49;35.70;;;18.87;;
15228;SDS011;7717;47.792;12.076;2024-01-10T02:42:18;36.47;;;18.43;;
15228;SDS011;7717;47.792;12.076;2024-01-10T02:44:43;35.03;;;18.47;;
15228;SDS011;7717;47.792;12.076;2024-01-10T02:47:09;32.67;;;18.30;;
15228;SDS011;7717;47.792;12.076;2024-01-10T02:49:36;36.60;;;19.30;;
15228;SDS011;7717;47.792;12.076;2024-01-10T02:52:02;37.83;;;17.70;;
15228;SDS011;7717;47.792;12.076;2024-01-10T02:54:28;36.23;;;18.67;;
15228;SDS011;7717;47.792;12.076;2024-01-10T02:56:53;29.37;;;17.73;;
15228;SDS011;7717;47.792;12.076;2024-01-10T02:59:19;33.47;;;18.30;;
15228;SDS011;7717;47.792;12.076;2024-01-10T03:01:44;34.80;;;18.77;;
15228;SDS011;7717;47.792;12.076;2024-01-10T03:04:10;40.10;;;20.40;;
15228;SDS011;7717;47.792;12.076;2024-01-10T03:06:35;37.60;;;18.93;;
15228;SDS011;7717;47.792;12.076;2024-01-10T03:09:01;36.83;;;19.33;;
15228;SDS011;7717;47.792;12.076;2024-01-10T03:11:27;36.23;;;18.37;;
15228;SDS011;7717;47.792;12.076;2024-01-10T03:14:03;41.90;;;19.97;;
15228;SDS011;7717;47.792;12.076;2024-01-10T03:16:32;35.07;;;18.50;;
15228;SDS011;7717;47.792;12.076;2024-01-10T03:18:57;32.10;;;18.77;;
15228;SDS011;7717;47.792;12.076;2024-01-10T03:21:22;37.57;;;19.53;;
15228;SDS011;7717;47.792;12.076;2024-01-10T03:23:56;34.57;;;17.33;;
15228;SDS011;7717;47.792;12.076;2024-01-10T03:26:22;37.40;;;18.77;;
15228;SDS011;7717;47.792;12.076;2024-01-10T03:28:48;35.13;;;20.00;;
15228;SDS011;7717;47.792;12.076;2024-01-10T03:31:17;40.20;;;20.57;;
15228;SDS011;7717;47.792;12.076;2024-01-10T03:33:42;37.87;;;17.97;;
15228;SDS011;7717;47.792;12.076;2024-01-10T03:36:10;37.57;;;20.33;;
15228;SDS011;7717;47.792;12.076;2024-01-10T03:38:37;35.73;;;19.70;;
15228;SDS011;7717;47.792;12.076;2024-01-10T03:41:02;40.17;;;19.60;;
15228;SDS011;7717;47.792;12.076;2024-01-10T03:43:28;36.17;;;18.97;;
15228;SDS011;7717;47.792;12.076;2024-01-10T03:45:53;34.97;;;17.57;;
15228;SDS011;7717;47.792;12.076;2024-01-10T03:48:19;35.83;;;19.27;;
15228;SDS011;7717;47.792;12.076;2024-01-10T03:50:45;38.73;;;19.20;;
15228;SDS011;7717;47.792;12.076;2024-01-10T03:53:10;34.83;;;20.20;;
15228;SDS011;7717;47.792;12.076;2024-01-10T03:55:36;33.40;;;17.23;;
15228;SDS011;7717;47.792;12.076;2024-01-10T03:58:01;37.93;;;20.30;;
15228;SDS011;7717;47.792;12.076;2024-01-10T04:00:26;35.60;;;17.93;;
15228;SDS011;7717;47.792;12.076;2024-01-10T04:02:52;38.23;;;17.53;;
15228;SDS011;7717;47.792;12.076;2024-01-10T04:05:18;34.73;;;17.87;;
15228;SDS011;7717;47.792;12.076;2024-01-10T04:07:44;37.43;;;19.07;;
15228;SDS011;7717;47.792;12.076;2024-01-10T04:10:10;38.47;;;18.63;;
15228;SDS011;7717;47.792;12.076;2024-01-10T04:12:38;37.63;;;19.10;;
15228;SDS011;7717;47.792;12.076;2024-01-10T04:15:10;36.90;;;17.93;;
15228;SDS011;7717;47.792;12.076;2024-01-10T04:17:36;35.47;;;18.13;;
15228;SDS011;7717;47.792;12.076;2024-01-10T04:20:02;33.07;;;17.80;;
15228;SDS011;7717;47.792;12.076;2024-01-10T04:22:28;36.47;;;17.50;;
15228;SDS011;7717;47.792;12.076;2024-01-10T04:24:53;35.50;;;18.53;;
15228;SDS011;7717;47.792;12.076;2024-01-10T04:27:19;33.77;;;18.17;;
15228;SDS011;7717;47.792;12.076;2024-01-10T04:29:50;34.37;;;18.33;;
15228;SDS011;7717;47.792;12.076;2024-01-10T04:32:15;32.93;;;15.90;;
15228;SDS011;7717;47.792;12.076;2024-01-10T04:34:41;30.40;;;16.13;;
15228;SDS011;7717;47.792;12.076;2024-01-10T04:37:06;37.83;;;18.67;;
15228;SDS011;7717;47.792;12.076;2024-01-10T04:39:32;37.70;;;17.93;;
15228;SDS011;7717;47.792;12.076;2024-01-10T04:41:58;29.77;;;17.03;;
15228;SDS011;7717;47.792;12.076;2024-01-10T04:44:24;30.63;;;17.73;;
15228;SDS011;7717;47.792;12.076;2024-01-10T04:46:50;31.40;;;17.47;;
15228;SDS011;7717;47.792;12.076;2024-01-10T04:49:16;25.17;;;14.90;;
15228;SDS011;7717;47.792;12.076;2024-01-10T04:51:41;23.43;;;13.03;;
15228;SDS011;7717;47.792;12.076;2024-01-10T04:54:06;31.37;;;14.63;;
15228;SDS011;7717;47.792;12.076;2024-01-10T04:56:32;34.80;;;16.90;;
15228;SDS011;7717;47.792;12.076;2024-01-10T04:58:57;35.83;;;17.67;;
15228;SDS011;7717;47.792;12.076;2024-01-10T05:01:23;35.43;;;20.17;;
15228;SDS011;7717;47.792;12.076;2024-01-10T05:03:49;28.07;;;16.47;;
15228;SDS011;7717;47.792;12.076;2024-01-10T05:06:14;35.67;;;18.70;;
15228;SDS011;7717;47.792;12.076;2024-01-10T05:08:39;36.10;;;17.67;;
15228;SDS011;7717;47.792;12.076;2024-01-10T05:11:05;31.13;;;16.57;;
15228;SDS011;7717;47.792;12.076;2024-01-10T05:13:30;36.73;;;17.73;;
15228;SDS011;7717;47.792;12.076;2024-01-10T05:15:55;32.67;;;17.57;;
15228;SDS011;7717;47.792;12.076;2024-01-10T05:18:21;36.33;;;17.80;;
15228;SDS011;7717;47.792;12.076;2024-01-10T05:20:47;40.27;;;18.63;;
15228;SDS011;7717;47.792;12.076;2024-01-10T05:23:12;31.63;;;17.27;;
15228;SDS011;7717;47.792;12.076;2024-01-10T05:25:38;35.27;;;17.00;;
15228;SDS011;7717;47.792;12.076;2024-01-10T05:28:03;41.93;;;17.97;;
15228;SDS011;7717;47.792;12.076;2024-01-10T05:30:29;37.00;;;16.83;;
15228;SDS011;7717;47.792;12.076;2024-01-10T05:32:55;32.30;;;17.33;;
15228;SDS011;7717;47.792;12.076;2024-01-10T05:35:20;35.50;;;18.33;;
15228;SDS011;7717;47.792;12.076;2024-01-10T05:37:46;37.77;;;16.67;;
15228;SDS011;7717;47.792;12.076;2024-01-10T05:40:11;33.63;;;18.00;;
15228;SDS011;7717;47.792;12.076;2024-01-10T05:42:37;35.83;;;16.97;;
15228;SDS011;7717;47.792;12.076;2024-01-10T05:45:03;37.07;;;16.60;;
15228;SDS011;7717;47.792;12.076;2024-01-10T05:47:31;37.53;;;17.87;;
15228;SDS011;7717;47.792;12.076;2024-01-10T05:49:56;36.37;;;18.67;;
15228;SDS011;7717;47.792;12.076;2024-01-10T05:52:21;34.93;;;17.93;;
15228;SDS011;7717;47.792;12.076;2024-01-10T05:54:50;31.33;;;16.20;;
15228;SDS011;7717;47.792;12.076;2024-01-10T05:57:15;33.93;;;16.93;;
15228;SDS011;7717;47.792;12.076;2024-01-10T05:59:41;33.43;;;17.50;;
15228;SDS011;7717;47.792;12.076;2024-01-10T06:02:06;33.63;;;16.57;;
15228;SDS011;7717;47.792;12.076;2024-01-10T06:04:32;36.17;;;18.33;;
15228;SDS011;7717;47.792;12.076;2024-01-10T06:07:01;36.77;;;17.67;;
15228;SDS011;7717;47.792;12.076;2024-01-10T06:09:26;37.13;;;18.30;;
15228;SDS011;7717;47.792;12.076;2024-01-10T06:11:52;36.87;;;16.83;;
15228;SDS011;7717;47.792;12.076;2024-01-10T06:14:23;39.03;;;18.07;;
15228;SDS011;7717;47.792;12.076;2024-01-10T06:16:48;31.63;;;16.40;;
15228;SDS011;7717;47.792;12.076;2024-01-10T06:19:13;35.83;;;16.50;;
15228;SDS011;7717;47.792;12.076;2024-01-10T06:21:39;44.70;;;23.77;;
15228;SDS011;7717;47.792;12.076;2024-01-10T06:24:04;34.80;;;18.97;;
15228;SDS011;7717;47.792;12.076;2024-01-10T06:26:30;43.83;;;22.30;;
15228;SDS011;7717;47.792;12.076;2024-01-10T06:28:56;37.33;;;17.90;;
15228;SDS011;7717;47.792;12.076;2024-01-10T06:31:21;34.10;;;18.17;;
15228;SDS011;7717;47.792;12.076;2024-01-10T06:33:47;38.33;;;19.53;;
15228;SDS011;7717;47.792;12.076;2024-01-10T06:36:12;42.90;;;20.60;;
15228;SDS011;7717;47.792;12.076;2024-01-10T06:38:38;35.03;;;19.33;;
15228;SDS011;7717;47.792;12.076;2024-01-10T06:41:10;41.77;;;17.73;;
15228;SDS011;7717;47.792;12.076;2024-01-10T06:43:39;37.40;;;19.30;;
15228;SDS011;7717;47.792;12.076;2024-01-10T06:46:04;32.27;;;18.37;;
15228;SDS011;7717;47.792;12.076;2024-01-10T06:48:30;35.23;;;18.10;;
15228;SDS011;7717;47.792;12.076;2024-01-10T06:50:56;37.03;;;16.83;;
15228;SDS011;7717;47.792;12.076;2024-01-10T06:53:25;38.00;;;19.07;;
15228;SDS011;7717;47.792;12.076;2024-01-10T06:55:50;39.40;;;18.00;;
15228;SDS011;7717;47.792;12.076;2024-01-10T06:58:15;30.00;;;16.97;;
15228;SDS011;7717;47.792;12.076;2024-01-10T07:00:41;38.90;;;18.47;;
15228;SDS011;7717;47.792;12.076;2024-01-10T07:03:06;34.47;;;17.13;;
15228;SDS011;7717;47.792;12.076;2024-01-10T07:05:32;40.17;;;18.57;;
15228;SDS011;7717;47.792;12.076;2024-01-10T07:07:58;34.67;;;16.67;;
15228;SDS011;7717;47.792;12.076;2024-01-10T07:10:28;35.43;;;16.67;;
15228;SDS011;7717;47.792;12.076;2024-01-10T07:12:54;33.67;;;17.77;;
15228;SDS011;7717;47.792;12.076;2024-01-10T07:15:21;38.40;;;17.17;;
15228;SDS011;7717;47.792;12.076;2024-01-10T07:17:47;37.27;;;17.33;;
15228;SDS011;7717;47.792;12.076;2024-01-10T07:20:13;31.90;;;16.57;;
15228;SDS011;7717;47.792;12.076;2024-01-10T07:22:38;32.47;;;16.43;;
15228;SDS011;7717;47.792;12.076;2024-01-10T07:25:07;43.67;;;20.47;;
15228;SDS011;7717;47.792;12.076;2024-01-10T07:27:34;36.40;;;19.47;;
15228;SDS011;7717;47.792;12.076;2024-01-10T07:30:03;36.73;;;18.70;;
15228;SDS011;7717;47.792;12.076;2024-01-10T07:32:33;33.97;;;17.50;;
15228;SDS011;7717;47.792;12.076;2024-01-10T07:34:59;40.30;;;20.27;;
15228;SDS011;7717;47.792;12.076;2024-01-10T07:37:24;42.17;;;20.60;;
15228;SDS011;7717;47.792;12.076;2024-01-10T07:39:49;36.87;;;16.83;;
15228;SDS011;7717;47.792;12.076;2024-01-10T07:42:15;36.07;;;17.73;;
15228;SDS011;7717;47.792;12.076;2024-01-10T07:44:43;36.37;;;16.50;;
15228;SDS011;7717;47.792;12.076;2024-01-10T07:47:08;38.17;;;19.03;;
15228;SDS011;7717;47.792;12.076;2024-01-10T07:49:35;37.33;;;17.20;;
15228;SDS011;7717;47.792;12.076;2024-01-10T07:52:01;37.00;;;19.03;;
15228;SDS011;7717;47.792;12.076;2024-01-10T07:54:30;32.63;;;16.67;;
15228;SDS011;7717;47.792;12.076;2024-01-10T07:56:57;35.80;;;18.17;;
15228;SDS011;7717;47.792;12.076;2024-01-10T07:59:23;36.03;;;18.70;;
15228;SDS011;7717;47.792;12.076;2024-01-10T08:01:56;36.40;;;21.10;;
15228;SDS011;7717;47.792;12.076;2024-01-10T08:04:23;41.07;;;20.80;;
15228;SDS011;7717;47.792;12.076;2024-01-10T08:06:55;36.37;;;18.70;;
15228;SDS011;7717;47.792;12.076;2024-01-10T08:09:21;43.00;;;22.07;;
15228;SDS011;7717;47.792;12.076;2024-01-10T08:11:47;46.23;;;22.17;;
15228;SDS011;7717;47.792;12.076;2024-01-10T08:14:13;48.50;;;21.37;;
15228;SDS011;7717;47.792;12.076;2024-01-10T08:16:40;45.53;;;20.53;;
15228;SDS011;7717;47.792;12.076;2024-01-10T08:19:06;40.50;;;20.47;;
15228;SDS011;7717;47.792;12.076;2024-01-10T08:21:32;48.53;;;21.07;;
15228;SDS011;7717;47.792;12.076;2024-01-10T08:23:57;44.53;;;20.70;;
15228;SDS011;7717;47.792;12.076;2024-01-10T08:26:22;40.33;;;21.10;;
15228;SDS011;7717;47.792;12.076;2024-01-10T08:28:48;44.07;;;20.53;;
15228;SDS011;7717;47.792;12.076;2024-01-10T08:31:16;41.20;;;20.20;;
15228;SDS011;7717;47.792;12.076;2024-01-10T08:33:42;26.43;;;13.57;;
15228;SDS011;7717;47.792;12.076;2024-01-10T08:36:07;40.40;;;20.07;;
15228;SDS011;7717;47.792;12.076;2024-01-10T08:38:38;40.67;;;20.60;;
15228;SDS011;7717;47.792;12.076;2024-01-10T08:41:03;41.53;;;20.30;;
15228;SDS011;7717;47.792;12.076;2024-01-10T08:43:29;37.80;;;18.07;;
15228;SDS011;7717;47.792;12.076;2024-01-10T08:45:55;35.10;;;16.67;;
15228;SDS011;7717;47.792;12.076;2024-01-10T08:48:22;39.43;;;19.20;;
15228;SDS011;7717;47.792;12.076;2024-01-10T08:50:48;39.70;;;20.67;;
15228;SDS011;7717;47.792;12.076;2024-01-10T08:53:13;37.57;;;18.77;;
15228;SDS011;7717;47.792;12.076;2024-01-10T08:55:39;39.80;;;19.57;;
15228;SDS011;7717;47.792;12.076;2024-01-10T08:58:04;37.63;;;21.30;;
15228;SDS011;7717;47.792;12.076;2024-01-10T09:00:30;43.53;;;21.00;;
15228;SDS011;7717;47.792;12.076;2024-01-10T09:02:55;51.50;;;26.53;;
15228;SDS011;7717;47.792;12.076;2024-01-10T09:05:20;49.37;;;22.13;;
15228;SDS011;7717;47.792;12.076;2024-01-10T09:07:49;42.30;;;21.23;;
15228;SDS011;7717;47.792;12.076;2024-01-10T09:10:15;44.03;;;20.80;;
15228;SDS011;7717;47.792;12.076;2024-01-10T09:12:41;40.43;;;20.83;;
15228;SDS011;7717;47.792;12.076;2024-01-10T09:15:11;41.77;;;21.10;;
15228;SDS011;7717;47.792;12.076;2024-01-10T09:17:39;43.70;;;21.00;;
15228;SDS011;7717;47.792;12.076;2024-01-10T09:20:05;42.03;;;22.07;;
15228;SDS011;7717;47.792;12.076;2024-01-10T09:22:30;41.33;;;19.40;;
15228;SDS011;7717;47.792;12.076;2024-01-10T09:24:56;46.30;;;22.23;;
15228;SDS011;7717;47.792;12.076;2024-01-10T09:27:24;38.50;;;20.50;;
15228;SDS011;7717;47.792;12.076;2024-01-10T09:29:49;36.93;;;20.43;;
15228;SDS011;7717;47.792;12.076;2024-01-10T09:32:15;37.67;;;20.37;;
15228;SDS011;7717;47.792;12.076;2024-01-10T09:34:41;41.90;;;20.80;;
15228;SDS011;7717;47.792;12.076;2024-01-10T09:37:07;43.90;;;21.53;;
15228;SDS011;7717;47.792;12.076;2024-01-10T09:39:32;37.80;;;21.37;;
15228;SDS011;7717;47.792;12.076;2024-01-10T09:41:57;41.37;;;20.43;;
15228;SDS011;7717;47.792;12.076;2024-01-10T09:44:23;40.03;;;21.17;;
15228;SDS011;7717;47.792;12.076;2024-01-10T09:46:52;40.30;;;20.93;;
15228;SDS011;7717;47.792;12.076;2024-01-10T09:49:20;37.47;;;19.13;;
15228;SDS011;7717;47.792;12.076;2024-01-10T09:51:57;42.87;;;22.73;;
15228;SDS011;7717;47.792;12.076;2024-01-10T09:54:29;43.10;;;22.83;;
15228;SDS011;7717;47.792;12.076;2024-01-10T09:56:56;35.67;;;19.63;;
15228;SDS011;7717;47.792;12.076;2024-01-10T09:59:22;43.77;;;23.93;;
15228;SDS011;7717;47.792;12.076;2024-01-10T10:01:49;35.50;;;20.10;;
15228;SDS011;7717;47.792;12.076;2024-01-10T10:04:16;41.47;;;21.30;;
15228;SDS011;7717;47.792;12.076;2024-01-10T10:06:43;40.33;;;19.57;;
15228;SDS011;7717;47.792;12.076;2024-01-10T10:09:09;34.57;;;17.47;;
15228;SDS011;7717;47.792;12.076;2024-01-10T10:11:36;32.33;;;17.57;;
15228;SDS011;7717;47.792;12.076;2024-01-10T10:14:14;39.17;;;18.60;;
15228;SDS011;7717;47.792;12.076;2024-01-10T10:16:41;37.20;;;18.90;;
15228;SDS011;7717;47.792;12.076;2024-01-10T10:19:06;36.97;;;17.30;;
15228;SDS011;7717;47.792;12.076;2024-01-10T10:21:32;33.13;;;17.97;;
15228;SDS011;7717;47.792;12.076;2024-01-10T10:24:01;33.77;;;18.57;;
15228;SDS011;7717;47.792;12.076;2024-01-10T10:26:29;30.53;;;18.00;;
15228;SDS011;7717;47.792;12.076;2024-01-10T10:28:57;29.37;;;16.87;;
15228;SDS011;7717;47.792;12.076;2024-01-10T10:31:24;33.07;;;18.93;;
15228;SDS011;7717;47.792;12.076;2024-01-10T10:33:49;41.83;;;21.73;;
15228;SDS011;7717;47.792;12.076;2024-01-10T10:36:22;42.30;;;21.67;;
15228;SDS011;7717;47.792;12.076;2024-01-10T10:38:48;36.90;;;19.87;;
15228;SDS011;7717;47.792;12.076;2024-01-10T10:41:14;39.43;;;21.73;;
15228;SDS011;7717;47.792;12.076;2024-01-10T10:43:40;36.23;;;19.33;;
15228;SDS011;7717;47.792;12.076;2024-01-10T10:46:06;41.43;;;21.07;;
15228;SDS011;7717;47.792;12.076;2024-01-10T10:48:35;39.63;;;21.03;;
15228;SDS011;7717;47.792;12.076;2024-01-10T10:53:36;36.67;;;20.37;;
15228;SDS011;7717;47.792;12.076;2024-01-10T10:56:04;36.77;;;21.20;;
15228;SDS011;7717;47.792;12.076;2024-01-10T10:58:49;33.70;;;19.53;;
15228;SDS011;7717;47.792;12.076;2024-01-10T11:01:18;32.77;;;18.47;;
15228;SDS011;7717;47.792;12.076;2024-01-10T11:03:45;32.77;;;17.43;;
15228;SDS011;7717;47.792;12.076;2024-01-10T11:06:12;35.40;;;19.67;;
15228;SDS011;7717;47.792;12.076;2024-01-10T11:08:47;35.23;;;19.13;;
15228;SDS011;7717;47.792;12.076;2024-01-10T11:11:25;35.03;;;18.63;;
15228;SDS011;7717;47.792;12.076;2024-01-10T11:14:32;34.03;;;19.03;;
15228;SDS011;7717;47.792;12.076;2024-01-10T11:17:17;44.53;;;24.57;;
15228;SDS011;7717;47.792;12.076;2024-01-10T11:22:49;37.43;;;20.40;;
15228;SDS011;7717;47.792;12.076;2024-01-10T11:25:20;36.77;;;20.63;;
15228;SDS011;7717;47.792;12.076;2024-01-10T11:27:45;40.73;;;21.67;;
15228;SDS011;7717;47.792;12.076;2024-01-10T11:30:12;40.23;;;21.07;;
15228;SDS011;7717;47.792;12.076;2024-01-10T11:32:38;41.23;;;21.73;;
15228;SDS011;7717;47.792;12.076;2024-01-10T11:35:11;39.43;;;21.73;;
15228;SDS011;7717;47.792;12.076;2024-01-10T11:37:44;37.67;;;20.80;;
15228;SDS011;7717;47.792;12.076;2024-01-10T11:40:11;39.73;;;21.00;;
15228;SDS011;7717;47.792;12.076;2024-01-10T11:42:46;37.70;;;20.10;;
15228;SDS011;7717;47.792;12.076;2024-01-10T11:45:45;36.10;;;20.53;;
15228;SDS011;7717;47.792;12.076;2024-01-10T11:48:15;35.77;;;19.80;;
15228;SDS011;7717;47.792;12.076;2024-01-10T11:50:43;36.33;;;18.67;;
15228;SDS011;7717;47.792;12.076;2024-01-10T11:53:09;37.23;;;21.77;;
15228;SDS011;7717;47.792;12.076;2024-01-10T11:55:51;38.73;;;20.00;;
15228;SDS011;7717;47.792;12.076;2024-01-10T11:58:17;37.70;;;20.03;;
15228;SDS011;7717;47.792;12.076;2024-01-10T12:00:42;46.43;;;23.83;;
15228;SDS011;7717;47.792;12.076;2024-01-10T12:03:09;79.50;;;40.10;;
15228;SDS011;7717;47.792;12.076;2024-01-10T12:05:36;42.77;;;27.27;;
15228;SDS011;7717;47.792;12.076;2024-01-10T12:08:06;40.60;;;23.67;;
15228;SDS011;7717;47.792;12.076;2024-01-10T12:10:32;38.80;;;21.30;;
15228;SDS011;7717;47.792;12.076;2024-01-10T12:13:02;38.13;;;21.57;;
15228;SDS011;7717;47.792;12.076;2024-01-10T12:15:28;37.03;;;20.80;;
15228;SDS011;7717;47.792;12.076;2024-01-10T12:17:54;32.57;;;19.13;;
15228;SDS011;7717;47.792;12.076;2024-01-10T12:20:20;35.67;;;19.90;;
15228;SDS011;7717;47.792;12.076;2024-01-10T12:22:45;32.80;;;18.73;;
15228;SDS011;7717;47.792;12.076;2024-01-10T12:25:11;35.50;;;19.33;;
15228;SDS011;7717;47.792;12.076;2024-01-10T12:27:36;36.17;;;19.03;;
15228;SDS011;7717;47.792;12.076;2024-01-10T12:30:02;36.00;;;19.17;;
15228;SDS011;7717;47.792;12.076;2024-01-10T12:32:28;37.23;;;19.43;;
15228;SDS011;7717;47.792;12.076;2024-01-10T12:35:02;37.07;;;18.77;;
15228;SDS011;7717;47.792;12.076;2024-01-10T12:37:29;43.83;;;20.30;;
15228;SDS011;7717;47.792;12.076;2024-01-10T12:39:56;45.87;;;21.47;;
15228;SDS011;7717;47.792;12.076;2024-01-10T12:42:22;38.77;;;21.10;;
15228;SDS011;7717;47.792;12.076;2024-01-10T12:44:49;43.17;;;19.57;;
15228;SDS011;7717;47.792;12.076;2024-01-10T12:47:18;39.97;;;20.40;;
15228;SDS011;7717;47.792;12.076;2024-01-10T12:49:48;47.40;;;21.70;;
15228;SDS011;7717;47.792;12.076;2024-01-10T12:52:14;42.20;;;21.40;;
15228;SDS011;7717;47.792;12.076;2024-01-10T12:54:40;43.87;;;21.20;;
15228;SDS011;7717;47.792;12.076;2024-01-10T12:57:05;41.00;;;21.60;;
15228;SDS011;7717;47.792;12.076;2024-01-10T12:59:34;54.80;;;22.83;;
15228;SDS011;7717;47.792;12.076;2024-01-10T13:01:59;41.50;;;21.57;;
15228;SDS011;7717;47.792;12.076;2024-01-10T13:04:25;47.10;;;22.73;;
15228;SDS011;7717;47.792;12.076;2024-01-10T13:06:50;51.83;;;22.37;;
15228;SDS011;7717;47.792;12.076;2024-01-10T13:09:16;53.40;;;23.30;;
15228;SDS011;7717;47.792;12.076;2024-01-10T13:11:41;47.43;;;22.37;;
15228;SDS011;7717;47.792;12.076;2024-01-10T13:14:07;47.03;;;22.60;;
15228;SDS011;7717;47.792;12.076;2024-01-10T13:16:32;48.17;;;23.27;;
15228;SDS011;7717;47.792;12.076;2024-01-10T13:18:58;48.13;;;21.23;;
15228;SDS011;7717;47.792;12.076;2024-01-10T13:21:24;52.93;;;22.67;;
15228;SDS011;7717;47.792;12.076;2024-01-10T13:23:50;48.97;;;22.30;;
15228;SDS011;7717;47.792;12.076;2024-01-10T13:26:16;49.87;;;22.20;;
15228;SDS011;7717;47.792;12.076;2024-01-10T13:28:42;50.00;;;21.87;;
15228;SDS011;7717;47.792;12.076;2024-01-10T13:31:08;44.97;;;22.73;;
15228;SDS011;7717;47.792;12.076;2024-01-10T13:33:34;48.33;;;22.63;;
15228;SDS011;7717;47.792;12.076;2024-01-10T13:36:00;54.60;;;23.47;;
15228;SDS011;7717;47.792;12.076;2024-01-10T13:38:26;44.40;;;22.07;;
15228;SDS011;7717;47.792;12.076;2024-01-10T13:40:51;49.23;;;22.77;;
15228;SDS011;7717;47.792;12.076;2024-01-10T13:43:17;50.83;;;21.33;;
15228;SDS011;7717;47.792;12.076;2024-01-10T13:45:42;47.33;;;21.93;;
15228;SDS011;7717;47.792;12.076;2024-01-10T13:48:08;52.10;;;23.17;;
15228;SDS011;7717;47.792;12.076;2024-01-10T13:50:35;46.47;;;22.23;;
15228;SDS011;7717;47.792;12.076;2024-01-10T13:53:01;44.70;;;21.63;;
15228;SDS011;7717;47.792;12.076;2024-01-10T13:55:29;52.77;;;22.73;;
15228;SDS011;7717;47.792;12.076;2024-01-10T13:57:54;46.13;;;21.47;;
15228;SDS011;7717;47.792;12.076;2024-01-10T14:00:21;42.80;;;21.97;;
15228;SDS011;7717;47.792;12.076;2024-01-10T14:02:48;45.07;;;19.37;;
15228;SDS011;7717;47.792;12.076;2024-01-10T14:05:13;44.37;;;20.87;;
15228;SDS011;7717;47.792;12.076;2024-01-10T14:07:39;46.50;;;21.50;;
15228;SDS011;7717;47.792;12.076;2024-01-10T14:10:05;42.23;;;20.93;;
15228;SDS011;7717;47.792;12.076;2024-01-10T14:12:30;53.27;;;22.17;;
15228;SDS011;7717;47.792;12.076;2024-01-10T14:14:56;40.07;;;21.23;;
15228;SDS011;7717;47.792;12.076;2024-01-10T14:17:22;52.87;;;23.80;;
15228;SDS011;7717;47.792;12.076;2024-01-10T14:19:48;54.17;;;23.20;;
15228;SDS011;7717;47.792;12.076;2024-01-10T14:22:15;42.43;;;20.87;;
15228;SDS011;7717;47.792;12.076;2024-01-10T14:24:42;44.77;;;20.40;;